createdAt,value
2022-11-19T11:10:25.246Z,47.32
2022-11-19T11:13:44.693Z,45.98
2022-11-19T11:16:47.746Z,50.03
2022-11-19T11:19:33.713Z,49.70
2022-11-19T11:22:21.687Z,49.78
2022-11-19T11:25:19.528Z,48.99
2022-11-19T11:28:14.907Z,50.13
2022-11-19T11:31:06.823Z,46.60
2022-11-19T11:33:57.435Z,50.20
2022-11-19T11:36:44.092Z,49.06
2022-11-19T11:39:32.105Z,47.57
2022-11-19T11:42:19.431Z,45.16
2022-11-19T11:45:07.499Z,48.67
2022-11-19T11:47:52.929Z,49.94
2022-11-19T11:50:38.507Z,51.04
2022-11-19T11:53:33.398Z,47.78
2022-11-19T11:56:21.359Z,48.68
2022-11-19T11:59:25.224Z,51.14
2022-11-19T12:02:30.512Z,53.16
2022-11-19T12:05:18.402Z,52.68
2022-11-19T12:08:13.589Z,56.64
2022-11-19T12:11:11.495Z,57.19
2022-11-19T12:14:12.583Z,58.53
2022-11-19T12:17:02.896Z,60.14
2022-11-19T12:19:48.123Z,59.06
2022-11-19T12:22:50.371Z,61.44
2022-11-19T12:25:41.627Z,60.02
2022-11-19T12:28:48.876Z,64.41
2022-11-19T12:32:15.794Z,64.68
2022-11-19T12:35:18.476Z,61.99
2022-11-19T12:38:16.064Z,60.02
2022-11-19T12:41:24.018Z,58.55
2022-11-19T12:44:46.596Z,55.57
2022-11-19T12:47:56.280Z,54.38
2022-11-19T12:50:49.501Z,56.79
2022-11-19T12:53:54.260Z,56.34
2022-11-19T12:56:46.658Z,56.84
2022-11-19T12:59:56.921Z,55.61
2022-11-19T13:03:01.216Z,54.18
2022-11-19T13:06:00.788Z,52.20
2022-11-19T13:08:59.058Z,55.30
2022-11-19T13:11:56.686Z,55.51
2022-11-19T13:14:49.524Z,55.03
2022-11-19T13:17:44.403Z,54.33
2022-11-19T13:20:48.668Z,52.93
2022-11-19T13:23:39.891Z,49.14
2022-11-19T13:26:36.810Z,47.93
2022-11-19T13:29:45.646Z,47.49
2022-11-19T13:32:39.936Z,52.39
2022-11-19T13:35:35.340Z,54.08
2022-11-19T13:38:34.615Z,53.14
2022-11-19T13:41:20.050Z,55.92
2022-11-19T13:44:24.392Z,61.04
2022-11-19T13:47:48.398Z,62.82
2022-11-19T13:50:43.254Z,64.66
2022-11-19T13:53:40.585Z,66.84
2022-11-19T13:56:45.419Z,70.54
2022-11-19T13:59:38.946Z,73.84
2022-11-19T14:02:59.113Z,72.20
2022-11-19T14:06:25.583Z,76.04
2022-11-19T14:09:46.701Z,76.58
2022-11-19T14:12:40.945Z,77.59
2022-11-19T14:16:00.000Z,80.22
2022-11-19T14:19:08.254Z,82.18
2022-11-19T14:22:13.305Z,82.59
2022-11-19T14:25:17.171Z,85.17
2022-11-19T14:28:41.223Z,86.68
2022-11-19T14:31:26.546Z,87.67
2022-11-19T14:34:26.747Z,87.83
2022-11-19T14:37:23.468Z,87.62
2022-11-19T14:40:28.187Z,87.31
2022-11-19T14:43:34.959Z,89.47
2022-11-19T14:46:26.401Z,89.47
2022-11-19T14:49:29.362Z,91.29
2022-11-19T14:52:24.149Z,92.22
2022-11-19T14:55:29.669Z,93.79
2022-11-19T14:58:24.600Z,94.79
2022-11-19T15:01:20.889Z,94.67
2022-11-19T15:04:10.534Z,95.37
2022-11-19T15:06:56.670Z,95.11
2022-11-19T15:10:10.123Z,96.12
2022-11-19T15:13:15.538Z,95.78
2022-11-19T15:16:18.789Z,97.04
2022-11-19T15:19:31.748Z,98.49
2022-11-19T15:22:37.270Z,99.42
2022-11-19T15:25:31.306Z,100.00
2022-11-19T15:28:31.640Z,100.00
2022-11-19T15:31:41.326Z,100.00
2022-11-19T15:35:04.016Z,100.00
2022-11-19T15:37:59.271Z,100.00
2022-11-19T15:40:46.199Z,100.00
2022-11-19T15:43:40.142Z,100.00
2022-11-19T15:46:42.743Z,100.00
2022-11-19T15:49:30.187Z,100.00
2022-11-19T15:52:25.999Z,100.00
2022-11-19T15:55:17.481Z,100.00
2022-11-19T15:58:14.325Z,100.00
2022-11-19T16:01:00.084Z,100.00
2022-11-19T16:03:45.783Z,100.00
2022-11-19T16:06:31.700Z,100.00
2022-11-19T16:09:24.951Z,100.00
2022-11-19T16:12:39.351Z,100.00
2022-11-19T16:15:45.110Z,100.00
2022-11-19T16:18:31.088Z,100.00
2022-11-19T16:21:28.902Z,100.00
2022-11-19T16:24:37.014Z,100.00
2022-11-19T16:27:24.745Z,100.00
2022-11-19T16:30:17.579Z,100.00
2022-11-19T16:33:02.968Z,100.00
2022-11-19T16:35:52.910Z,100.00
2022-11-19T16:38:42.361Z,100.00
2022-11-19T16:41:46.761Z,100.00
2022-11-19T16:44:33.151Z,100.00
2022-11-19T16:47:37.590Z,100.00
2022-11-19T16:50:35.887Z,100.00
2022-11-19T16:53:47.457Z,100.00
2022-11-19T16:56:37.328Z,100.00
2022-11-19T16:59:25.782Z,100.00
2022-11-19T17:02:17.534Z,100.00
2022-11-19T17:05:09.247Z,100.00
2022-11-19T17:08:08.133Z,100.00
2022-11-19T17:11:35.374Z,100.00
2022-11-19T17:14:51.377Z,100.00
2022-11-19T17:17:41.232Z,100.00
2022-11-19T17:20:27.141Z,100.00
2022-11-19T17:23:18.389Z,100.00
2022-11-19T17:26:07.144Z,100.00
2022-11-19T17:29:11.667Z,100.00
2022-11-19T17:31:57.553Z,100.00
2022-11-19T17:34:45.838Z,100.00
2022-11-19T17:37:31.762Z,100.00
2022-11-19T17:40:17.679Z,100.00
2022-11-19T17:43:23.916Z,100.00
2022-11-19T17:46:10.285Z,100.00
2022-11-19T17:48:56.845Z,100.00
2022-11-19T17:51:42.274Z,100.00
2022-11-19T17:54:29.854Z,100.00
2022-11-19T17:57:15.143Z,100.00
2022-11-19T18:00:00.407Z,100.00
2022-11-19T18:02:48.586Z,100.00
2022-11-19T18:05:36.566Z,100.00
2022-11-19T18:08:22.121Z,100.00
2022-11-19T18:11:13.213Z,100.00
2022-11-19T18:14:09.918Z,100.00
2022-11-19T18:16:56.314Z,100.00
2022-11-19T18:19:41.943Z,100.00
2022-11-19T18:22:27.626Z,100.00
2022-11-19T18:25:18.499Z,100.00
2022-11-19T18:28:04.029Z,100.00
2022-11-19T18:30:49.391Z,100.00
2022-11-19T18:33:36.180Z,100.00
2022-11-19T18:36:22.863Z,100.00
2022-11-19T18:39:08.470Z,100.00
2022-11-19T18:41:53.861Z,100.00
2022-11-19T18:44:41.671Z,100.00
2022-11-19T18:47:27.187Z,100.00
2022-11-19T18:50:12.484Z,100.00
2022-11-19T18:52:58.032Z,100.00
2022-11-19T18:55:45.779Z,100.00
2022-11-19T18:58:32.420Z,100.00
2022-11-19T19:01:18.616Z,100.00
2022-11-19T19:04:05.320Z,100.00
2022-11-19T19:06:51.485Z,100.00
2022-11-19T19:09:37.452Z,100.00
2022-11-19T19:12:23.176Z,100.00
2022-11-19T19:15:09.017Z,100.00
2022-11-19T19:17:54.634Z,100.00
2022-11-19T19:20:40.243Z,100.00
2022-11-19T19:23:25.749Z,100.00
2022-11-19T19:26:13.171Z,100.00
2022-11-19T19:28:58.824Z,100.00
2022-11-19T19:31:44.507Z,100.00
2022-11-19T19:34:30.535Z,100.00
2022-11-19T19:37:15.918Z,100.00
2022-11-19T19:40:01.350Z,100.00
2022-11-19T19:42:46.882Z,100.00
2022-11-19T19:45:35.651Z,100.00
2022-11-19T19:48:20.961Z,100.00
2022-11-19T19:51:06.460Z,100.00
2022-11-19T19:53:52.276Z,100.00
2022-11-19T19:56:37.574Z,100.00
2022-11-19T19:59:23.392Z,100.00
2022-11-19T20:02:10.222Z,100.00
2022-11-19T20:04:55.937Z,100.00
2022-11-19T20:07:41.738Z,100.00
2022-11-19T20:10:27.271Z,100.00
2022-11-19T20:13:27.552Z,100.00
2022-11-19T20:16:18.765Z,100.00
2022-11-19T20:19:07.079Z,100.00
2022-11-19T20:21:52.687Z,100.00
2022-11-19T20:24:38.369Z,100.00
2022-11-19T20:27:23.815Z,100.00
2022-11-19T20:30:09.628Z,100.00
2022-11-19T20:32:55.113Z,100.00
2022-11-19T20:35:49.857Z,100.00
2022-11-19T20:38:37.354Z,100.00
2022-11-19T20:41:42.125Z,100.00
2022-11-19T20:44:27.850Z,100.00
2022-11-19T20:47:13.408Z,100.00
2022-11-19T20:49:58.714Z,100.00
2022-11-19T20:52:44.128Z,100.00
2022-11-19T20:55:29.670Z,100.00
2022-11-19T20:58:15.049Z,100.00
2022-11-19T21:01:07.830Z,100.00
2022-11-19T21:03:53.976Z,100.00
2022-11-19T21:06:39.958Z,100.00
2022-11-19T21:09:26.026Z,100.00
2022-11-19T21:12:11.965Z,100.00
2022-11-19T21:14:57.374Z,100.00
2022-11-19T21:17:42.947Z,100.00
2022-11-19T21:20:28.175Z,100.00
2022-11-19T21:23:13.717Z,100.00
2022-11-19T21:26:04.326Z,100.00
2022-11-19T21:28:52.412Z,100.00
2022-11-19T21:31:38.680Z,100.00
2022-11-19T21:34:24.789Z,100.00
2022-11-19T21:37:10.597Z,100.00
2022-11-19T21:39:55.995Z,100.00
2022-11-19T21:42:41.775Z,100.00
2022-11-19T21:45:27.097Z,100.00
2022-11-19T21:48:12.734Z,100.00
2022-11-19T21:50:58.396Z,100.00
2022-11-19T21:53:43.784Z,100.00
2022-11-19T21:56:33.796Z,100.00
2022-11-19T21:59:21.212Z,100.00
2022-11-19T22:02:06.725Z,100.00
2022-11-19T22:04:52.416Z,100.00
2022-11-19T22:07:37.944Z,100.00
2022-11-19T22:10:23.301Z,100.00
2022-11-19T22:13:09.046Z,100.00
2022-11-19T22:16:00.927Z,100.00
2022-11-19T22:18:46.380Z,100.00
2022-11-19T22:21:32.736Z,100.00
2022-11-19T22:24:18.441Z,100.00
2022-11-19T22:27:04.001Z,100.00
2022-11-19T22:29:49.694Z,100.00
2022-11-19T22:32:35.338Z,100.00
2022-11-19T22:35:20.661Z,100.00
2022-11-19T22:38:05.900Z,100.00
2022-11-19T22:40:51.482Z,100.00
2022-11-19T22:43:38.381Z,100.00
2022-11-19T22:46:23.648Z,100.00
2022-11-19T22:49:09.107Z,100.00
2022-11-19T22:51:54.485Z,100.00
2022-11-19T22:54:41.778Z,100.00
2022-11-19T22:57:27.874Z,100.00
2022-11-19T23:00:33.399Z,100.00
2022-11-19T23:03:19.237Z,100.00
2022-11-19T23:06:04.786Z,100.00
2022-11-19T23:08:51.004Z,100.00
2022-11-19T23:11:54.788Z,100.00
2022-11-19T23:14:40.490Z,100.00
2022-11-19T23:17:26.050Z,100.00
2022-11-19T23:20:11.839Z,100.00
2022-11-19T23:22:57.305Z,100.00
2022-11-19T23:25:43.000Z,100.00
2022-11-19T23:28:30.446Z,100.00
2022-11-19T23:31:24.104Z,100.00
2022-11-19T23:34:09.775Z,100.00
2022-11-19T23:36:55.187Z,100.00
2022-11-19T23:39:40.856Z,100.00
2022-11-19T23:42:26.430Z,100.00
2022-11-19T23:45:11.539Z,100.00
2022-11-19T23:47:57.366Z,100.00
2022-11-19T23:50:43.211Z,100.00
2022-11-19T23:53:28.636Z,100.00
2022-11-19T23:56:15.369Z,100.00
2022-11-19T23:59:02.351Z,100.00
